»·PEaware :: N3KW L78-KPSP

N3KW :: L78-KPSP

FLIGHT INFORMATION

Flight Status: Arrived
Operator: Privately registered:
United States
More flights under this callsign
Pilot: Matteo M. (13094)
Aircraft: Unknown
(B407)
More flights by this aircraft type
Origin: L78 Jacumba
United States
Destination: KPSP Palm Springs Intl
United States
More flights between these airports :: More routes between these airports
Route: ++ TRM V137 PSP
File this flight plan on PilotEdge
Remarks:
Altitude:
(Current/Filed)
8,000ft
Speed:
(Current/Filed)
130kts
Departed: 02-May-19 07:11 PM
Arrived: 02-May-19 07:55 PM
Distance/Time
Traveled:
75nm/0:44
Distance/Time
To Go:
Arrived

Flight Plot

Page will automatically refresh every two minutes.


Map Options




Map Legend


Flown Route
Filed Route
Departure Airport
Arrival Airport
Navaid (VOR, NDB)
Fix

Horizontal Profiles

Position Reports

Time Latitude Longitude Heading Altitude Ground
Speed
02-May-19 18:36 32.616742 -116.165505 256 2819ft 0kts
02-May-19 18:37 32.616742 -116.165505 256 2819ft 0kts
02-May-19 18:38 32.616742 -116.165505 256 2819ft 0kts
02-May-19 18:39 32.616742 -116.165505 256 2819ft 0kts
02-May-19 18:40 32.616742 -116.165505 256 2819ft 0kts
02-May-19 18:41 32.616742 -116.165505 256 2819ft 0kts
02-May-19 18:42 32.616742 -116.165505 256 2819ft 0kts
02-May-19 18:43 32.616742 -116.165505 256 2819ft 0kts
02-May-19 18:44 32.616742 -116.165505 256 2819ft 0kts
02-May-19 18:45 32.616742 -116.165505 256 2819ft 0kts
02-May-19 18:46 32.616742 -116.165505 256 2819ft 0kts
02-May-19 18:47 32.616742 -116.165505 256 2819ft 0kts
02-May-19 18:48 32.616742 -116.165505 256 2819ft 0kts
02-May-19 18:49 32.616742 -116.165505 256 2819ft 0kts
02-May-19 18:50 32.616742 -116.165505 256 2819ft 0kts
02-May-19 18:51 32.616742 -116.165505 256 2819ft 0kts
02-May-19 18:52 32.616742 -116.165505 256 2819ft 0kts
02-May-19 18:53 32.616742 -116.165505 256 2819ft 0kts
02-May-19 18:54 32.616742 -116.165505 256 2819ft 0kts
02-May-19 18:55 32.616742 -116.165505 256 2819ft 0kts
02-May-19 18:56 32.616742 -116.165505 256 2819ft 0kts
02-May-19 18:57 32.616742 -116.165505 256 2819ft 0kts
02-May-19 18:58 32.616742 -116.165505 256 2819ft 0kts
02-May-19 18:59 32.616742 -116.165505 256 2819ft 0kts
02-May-19 19:00 32.616742 -116.165505 256 2819ft 0kts
02-May-19 19:01 32.616742 -116.165505 256 2819ft 0kts
02-May-19 19:02 32.616742 -116.165505 256 2819ft 0kts
02-May-19 19:03 32.616742 -116.165505 256 2819ft 0kts
02-May-19 19:04 32.616742 -116.165505 256 2819ft 0kts
02-May-19 19:05 32.616742 -116.165505 256 2819ft 0kts
02-May-19 19:06 32.616742 -116.165505 256 2819ft 0kts
02-May-19 19:07 32.616742 -116.165505 256 2819ft 0kts
02-May-19 19:08 32.616742 -116.165505 256 2819ft 0kts
02-May-19 19:09 32.616742 -116.165505 256 2819ft 0kts
02-May-19 19:10 32.621255 -116.166031 25 3181ft 66kts
02-May-19 19:11 32.641243 -116.146301 32 4185ft 105kts
02-May-19 19:12 32.670220 -116.131093 50 4541ft 126kts
02-May-19 19:13 32.689294 -116.098192 50 5014ft 113kts
02-May-19 19:14 32.693298 -116.064050 86 5963ft 100kts
02-May-19 19:15 32.695625 -116.033091 85 7056ft 89kts
02-May-19 19:16 32.698330 -116.003385 83 7903ft 106kts
02-May-19 19:17 32.704383 -115.964385 58 7867ft 124kts
02-May-19 19:18 32.735079 -115.951450 358 7865ft 123kts
02-May-19 19:19 32.770160 -115.952401 352 7862ft 129kts
02-May-19 19:20 32.805500 -115.959649 347 7861ft 129kts
02-May-19 19:21 32.840783 -115.967987 346 7859ft 129kts
02-May-19 19:22 32.876187 -115.976275 347 7862ft 130kts
02-May-19 19:23 32.911691 -115.983911 347 7863ft 130kts
02-May-19 19:24 32.947273 -115.991877 349 7864ft 130kts
02-May-19 19:25 32.983467 -115.995770 350 7863ft 131kts
02-May-19 19:26 33.019185 -116.003447 347 7862ft 130kts
02-May-19 19:27 33.054850 -116.010617 352 7861ft 130kts
02-May-19 19:28 33.090684 -116.017279 347 7860ft 131kts
02-May-19 19:29 33.126292 -116.020494 358 7858ft 131kts
02-May-19 19:30 33.161605 -116.011878 346 7858ft 129kts
02-May-19 19:31 33.196579 -116.013063 342 7850ft 126kts
02-May-19 19:32 33.231534 -116.021856 345 7855ft 130kts
02-May-19 19:33 33.266001 -116.031827 343 7842ft 132kts
02-May-19 19:34 33.301285 -116.043266 341 7827ft 132kts
02-May-19 19:35 33.336563 -116.055278 341 7823ft 132kts
02-May-19 19:36 33.371645 -116.067450 341 7822ft 132kts
02-May-19 19:37 33.403674 -116.086782 318 7820ft 130kts
02-May-19 19:38 33.431874 -116.113989 318 7817ft 130kts
02-May-19 19:39 33.460091 -116.141315 318 7813ft 130kts
02-May-19 19:40 33.488398 -116.168689 318 7810ft 130kts
02-May-19 19:41 33.516673 -116.196018 318 7809ft 130kts
02-May-19 19:42 33.544936 -116.223208 318 7808ft 131kts
02-May-19 19:43 33.573351 -116.250615 318 7806ft 131kts
02-May-19 19:44 33.601695 -116.278074 318 7807ft 131kts
02-May-19 19:45 33.630375 -116.304882 320 7810ft 131kts
02-May-19 19:46 33.660034 -116.331539 316 6726ft 126kts
02-May-19 19:47 33.683030 -116.356895 307 5236ft 105kts
02-May-19 19:48 33.701777 -116.382990 310 3840ft 107kts
02-May-19 19:49 33.725337 -116.410810 320 2991ft 132kts
02-May-19 19:50 33.754119 -116.437942 322 2237ft 123kts
02-May-19 19:51 33.779399 -116.460729 324 1673ft 114kts
02-May-19 19:52 33.803480 -116.481287 323 1026ft 86kts
02-May-19 19:53 33.819366 -116.495663 323 590ft 61kts
02-May-19 19:54 33.826697 -116.501828 40 437ft 1kts
02-May-19 19:55 33.826665 -116.500613 79 441ft 5kts
02-May-19 19:56 33.826498 -116.500263 137 429ft 0kts
02-May-19 19:57 33.826498 -116.500263 137 429ft 0kts

Navigation Log

Ident Type
Flight plan parsing failed, navigation log unavailable